createdAt,value
2023-03-15T00:00:45.569Z,12.55
2023-03-15T00:01:48.083Z,11.82
2023-03-15T00:02:50.738Z,8.90
2023-03-15T00:03:55.234Z,9.52
2023-03-15T00:04:57.847Z,13.40
2023-03-15T00:06:01.377Z,9.15
2023-03-15T00:07:04.148Z,9.32
2023-03-15T00:08:06.624Z,10.05
2023-03-15T00:09:09.200Z,10.25
2023-03-15T00:10:11.898Z,10.63
2023-03-15T00:11:15.965Z,9.65
2023-03-15T00:12:18.827Z,11.10
2023-03-15T00:13:21.374Z,7.88
2023-03-15T00:14:23.935Z,4.10
2023-03-15T00:15:26.359Z,3.60
2023-03-15T00:16:28.971Z,2.22
2023-03-15T00:17:34.752Z,2.20
2023-03-15T00:18:37.362Z,1.25
2023-03-15T00:19:39.816Z,2.58
2023-03-15T00:20:42.536Z,2.05
2023-03-15T00:21:45.095Z,2.92
2023-03-15T00:22:47.626Z,1.35
2023-03-15T00:23:50.602Z,1.42
2023-03-15T00:24:53.211Z,1.48
2023-03-15T00:25:55.765Z,1.45
2023-03-15T00:26:58.371Z,1.90
2023-03-15T00:28:00.898Z,2.42
2023-03-15T00:29:03.862Z,2.05
2023-03-15T00:30:07.113Z,1.33
2023-03-15T00:31:21.568Z,2.00
2023-03-15T00:32:25.589Z,2.25
2023-03-15T00:33:28.110Z,4.50
2023-03-15T00:34:33.798Z,1.55
2023-03-15T00:35:40.565Z,2.55
2023-03-15T00:36:43.718Z,4.30
2023-03-15T00:37:46.397Z,0.85
2023-03-15T00:38:49.209Z,1.75
2023-03-15T00:39:52.157Z,1.63
2023-03-15T00:40:54.741Z,3.22
2023-03-15T00:41:57.311Z,1.95
2023-03-15T00:43:00.434Z,1.83
2023-03-15T00:44:04.494Z,3.17
2023-03-15T00:45:07.668Z,1.52
2023-03-15T00:46:11.126Z,2.75
2023-03-15T00:47:14.827Z,2.15
2023-03-15T00:48:17.345Z,0.65
2023-03-15T00:49:20.241Z,1.42
2023-03-15T00:50:23.385Z,2.45
2023-03-15T00:51:25.963Z,0.95
2023-03-15T00:52:36.078Z,1.58
2023-03-15T00:53:40.962Z,1.25
2023-03-15T00:54:44.308Z,2.80
2023-03-15T00:55:47.222Z,1.35
2023-03-15T00:56:50.830Z,1.02
2023-03-15T00:57:53.487Z,1.67
2023-03-15T00:58:56.238Z,2.45
2023-03-15T00:59:58.877Z,2.42
2023-03-15T01:01:11.323Z,3.20
2023-03-15T01:03:16.613Z,1.95
2023-03-15T01:04:19.256Z,2.70
2023-03-15T01:05:22.570Z,4.72
2023-03-15T01:06:27.623Z,1.70
2023-03-15T01:07:30.257Z,4.00
2023-03-15T01:08:32.900Z,1.38
2023-03-15T01:09:36.030Z,1.75
2023-03-15T01:10:38.900Z,2.58
2023-03-15T01:11:43.090Z,2.35
2023-03-15T01:12:46.339Z,1.60
2023-03-15T01:13:48.894Z,2.80
2023-03-15T01:14:51.536Z,1.23
2023-03-15T01:15:54.129Z,2.75
2023-03-15T01:16:56.674Z,1.58
2023-03-15T01:17:59.253Z,1.58
2023-03-15T01:19:01.995Z,1.10
2023-03-15T01:20:05.680Z,2.10
2023-03-15T01:21:13.386Z,0.70
2023-03-15T01:22:15.998Z,1.77
2023-03-15T01:23:18.721Z,1.65
2023-03-15T01:24:23.179Z,2.05
2023-03-15T01:25:26.180Z,1.15
2023-03-15T01:26:28.768Z,0.90
2023-03-15T01:27:31.401Z,1.50
2023-03-15T01:28:34.189Z,1.27
2023-03-15T01:29:36.914Z,2.95
2023-03-15T01:30:40.734Z,1.67
2023-03-15T01:31:43.215Z,2.40
2023-03-15T01:32:46.639Z,1.83
2023-03-15T01:33:49.366Z,2.60
2023-03-15T01:34:51.953Z,1.08
2023-03-15T01:36:06.333Z,2.10
2023-03-15T01:37:14.765Z,1.65
2023-03-15T01:38:21.427Z,3.03
2023-03-15T01:39:24.102Z,2.03
2023-03-15T01:40:26.784Z,1.95
2023-03-15T01:41:29.448Z,1.48
2023-03-15T01:42:32.639Z,1.80
2023-03-15T01:43:35.854Z,3.28
2023-03-15T01:44:52.313Z,2.47
2023-03-15T01:46:16.187Z,5.15
2023-03-15T01:47:20.896Z,3.03
2023-03-15T01:48:28.572Z,1.30
2023-03-15T01:49:32.598Z,2.83
2023-03-15T01:50:35.917Z,4.03
2023-03-15T01:51:49.656Z,3.13
2023-03-15T01:52:53.701Z,4.47
2023-03-15T01:54:28.093Z,3.33
2023-03-15T01:55:32.630Z,1.90
2023-03-15T01:56:50.806Z,2.33
2023-03-15T01:57:56.972Z,2.92
2023-03-15T01:59:04.111Z,1.48
2023-03-15T02:00:12.326Z,1.73
2023-03-15T02:01:35.679Z,1.88
2023-03-15T02:02:46.635Z,1.92
2023-03-15T02:04:00.013Z,2.63
2023-03-15T02:05:12.140Z,1.67
2023-03-15T02:06:18.815Z,1.33
2023-03-15T02:07:29.299Z,3.97
2023-03-15T02:08:37.976Z,1.95
2023-03-15T02:10:04.316Z,3.80
2023-03-15T02:11:09.245Z,3.58
2023-03-15T02:12:12.176Z,3.35
2023-03-15T02:13:18.113Z,3.65
2023-03-15T02:14:22.541Z,5.03
2023-03-15T02:15:25.636Z,2.13
2023-03-15T02:16:29.417Z,4.88
2023-03-15T02:17:41.555Z,2.75
2023-03-15T02:18:44.252Z,4.88
2023-03-15T02:19:49.304Z,4.22
2023-03-15T02:20:57.448Z,2.22
2023-03-15T02:22:17.128Z,5.40
2023-03-15T02:23:21.617Z,6.95
2023-03-15T02:24:45.670Z,8.77
2023-03-15T02:26:12.826Z,2.45
2023-03-15T02:27:25.201Z,2.10
2023-03-15T02:28:28.268Z,6.75
2023-03-15T02:29:30.972Z,5.55
2023-03-15T02:30:33.890Z,2.80
2023-03-15T02:31:38.737Z,2.17
2023-03-15T02:32:41.784Z,2.55
2023-03-15T02:33:46.845Z,6.00
2023-03-15T02:34:50.151Z,6.65
2023-03-15T02:35:53.398Z,6.00
2023-03-15T02:36:56.051Z,4.53
2023-03-15T02:37:59.426Z,2.08
2023-03-15T02:39:03.596Z,7.30
2023-03-15T02:40:18.223Z,9.20
2023-03-15T02:41:38.189Z,4.80
2023-03-15T02:42:42.634Z,2.30
2023-03-15T02:43:46.713Z,3.17
2023-03-15T02:44:51.886Z,4.53
2023-03-15T02:45:54.869Z,3.67
2023-03-15T02:47:06.623Z,5.75
2023-03-15T02:48:10.104Z,2.95
2023-03-15T02:49:13.548Z,4.20
2023-03-15T02:50:16.465Z,4.15
2023-03-15T02:51:24.049Z,6.47
2023-03-15T02:52:27.108Z,2.50
2023-03-15T02:53:31.111Z,7.82
2023-03-15T02:54:34.348Z,5.75
2023-03-15T02:55:36.829Z,2.38
2023-03-15T02:56:41.118Z,3.40
2023-03-15T02:57:43.621Z,1.77
2023-03-15T02:58:46.533Z,3.20
2023-03-15T02:59:54.987Z,2.65
2023-03-15T03:00:57.617Z,3.80
2023-03-15T03:02:00.766Z,2.58
2023-03-15T03:03:03.408Z,2.38
2023-03-15T03:04:07.488Z,1.80
2023-03-15T03:05:11.614Z,2.65
2023-03-15T03:06:17.965Z,5.57
2023-03-15T03:07:21.209Z,3.97
2023-03-15T03:08:28.483Z,4.32
2023-03-15T03:09:31.059Z,1.10
2023-03-15T03:10:33.546Z,4.35
2023-03-15T03:11:37.474Z,5.25
2023-03-15T03:12:40.041Z,1.48
2023-03-15T03:13:43.263Z,2.67
2023-03-15T03:14:45.727Z,3.55
2023-03-15T03:15:58.770Z,3.22
2023-03-15T03:17:04.619Z,4.55
2023-03-15T03:18:07.093Z,1.05
2023-03-15T03:19:12.667Z,1.75
2023-03-15T03:20:16.713Z,1.48
2023-03-15T03:21:22.209Z,4.43
2023-03-15T03:22:26.082Z,4.63
2023-03-15T03:23:28.906Z,3.08
2023-03-15T03:24:33.803Z,3.80
2023-03-15T03:25:36.788Z,3.08
2023-03-15T03:26:39.498Z,2.60
2023-03-15T03:27:42.078Z,2.92
2023-03-15T03:28:47.413Z,3.00
2023-03-15T03:29:50.688Z,2.40
2023-03-15T03:30:54.325Z,4.93
2023-03-15T03:31:56.938Z,9.13
2023-03-15T03:32:59.619Z,5.47
2023-03-15T03:34:02.410Z,4.15
2023-03-15T03:35:06.190Z,1.95
2023-03-15T03:36:09.761Z,2.63
2023-03-15T03:37:12.751Z,4.38
2023-03-15T03:38:28.063Z,2.58
2023-03-15T03:39:33.379Z,3.13
2023-03-15T03:40:40.625Z,2.55
2023-03-15T03:41:43.648Z,4.03
2023-03-15T03:42:47.859Z,2.35
2023-03-15T03:43:53.742Z,5.45
2023-03-15T03:44:58.077Z,3.97
2023-03-15T03:46:06.877Z,2.25
2023-03-15T03:47:12.763Z,6.03
2023-03-15T03:48:15.749Z,4.10
2023-03-15T03:49:18.248Z,2.33
2023-03-15T03:50:22.211Z,3.55
2023-03-15T03:51:24.814Z,4.20
2023-03-15T03:52:27.275Z,11.18
2023-03-15T03:53:36.664Z,1.85
2023-03-15T03:54:40.035Z,4.65
2023-03-15T03:55:42.900Z,4.40
2023-03-15T03:56:45.902Z,8.10
2023-03-15T03:57:48.393Z,3.53
2023-03-15T03:58:59.840Z,3.22
2023-03-15T04:00:15.172Z,6.75
2023-03-15T04:01:17.921Z,5.07
2023-03-15T04:02:24.887Z,6.30
2023-03-15T04:03:39.857Z,7.43
2023-03-15T04:04:50.356Z,4.85
2023-03-15T04:05:56.792Z,4.13
2023-03-15T04:07:00.549Z,5.18
2023-03-15T04:08:10.846Z,6.53
2023-03-15T04:09:16.534Z,5.78
2023-03-15T04:10:27.056Z,7.10
2023-03-15T04:11:29.793Z,4.50
2023-03-15T04:12:36.281Z,4.60
2023-03-15T04:13:39.333Z,7.60
2023-03-15T04:14:42.064Z,3.78
2023-03-15T04:15:47.513Z,4.97
2023-03-15T04:16:49.963Z,7.38
2023-03-15T04:17:57.328Z,8.90
2023-03-15T04:19:04.724Z,5.80
2023-03-15T04:20:11.950Z,3.13
2023-03-15T04:21:23.122Z,5.10
2023-03-15T04:22:29.422Z,9.43
2023-03-15T04:24:10.164Z,5.97
2023-03-15T04:25:32.868Z,3.08
2023-03-15T04:27:02.059Z,8.60
2023-03-15T04:28:16.297Z,5.38
2023-03-15T04:29:21.839Z,5.43
2023-03-15T04:30:33.257Z,6.47
2023-03-15T04:31:48.344Z,5.05
2023-03-15T04:33:11.401Z,3.33
2023-03-15T04:34:33.585Z,4.38
2023-03-15T04:35:57.423Z,5.25
2023-03-15T04:37:36.323Z,5.13
2023-03-15T04:39:06.090Z,5.32
2023-03-15T04:40:35.319Z,2.03
2023-03-15T04:41:55.988Z,4.45
2023-03-15T04:43:18.663Z,6.40
2023-03-15T04:44:55.746Z,8.13
2023-03-15T04:46:13.756Z,8.68
2023-03-15T04:47:34.928Z,3.25
2023-03-15T04:48:59.355Z,7.78
2023-03-15T04:50:31.486Z,7.57
2023-03-15T04:52:06.405Z,2.97
2023-03-15T04:53:27.208Z,3.28
2023-03-15T04:55:02.218Z,5.25
2023-03-15T04:56:23.274Z,8.00
2023-03-15T04:57:44.105Z,5.95
2023-03-15T04:59:10.826Z,4.60
2023-03-15T05:00:33.660Z,4.22
2023-03-15T05:01:59.081Z,5.57
2023-03-15T05:03:24.898Z,5.18
2023-03-15T05:04:42.628Z,2.38
2023-03-15T05:06:14.479Z,3.25
2023-03-15T05:07:38.174Z,5.07
2023-03-15T05:08:59.033Z,8.30
2023-03-15T05:10:19.478Z,3.90
2023-03-15T05:11:42.174Z,6.38
2023-03-15T05:13:14.107Z,5.55
2023-03-15T05:14:26.421Z,5.50
2023-03-15T05:15:49.354Z,5.45
2023-03-15T05:17:12.213Z,3.60
2023-03-15T05:18:17.549Z,8.63
2023-03-15T05:19:39.516Z,11.45
2023-03-15T05:21:17.655Z,6.38
2023-03-15T05:22:43.223Z,6.57
2023-03-15T05:24:01.128Z,7.28
2023-03-15T05:25:22.061Z,8.20
2023-03-15T05:26:47.915Z,11.00
2023-03-15T05:28:22.458Z,3.38
2023-03-15T05:29:54.267Z,4.65
2023-03-15T05:31:00.772Z,4.40
2023-03-15T05:32:35.379Z,9.60
2023-03-15T05:33:58.114Z,4.82
2023-03-15T05:35:04.863Z,3.65
2023-03-15T05:36:18.659Z,9.13
2023-03-15T05:37:42.393Z,6.63
2023-03-15T05:39:11.826Z,8.32
2023-03-15T05:40:30.241Z,5.47
2023-03-15T05:41:58.527Z,6.47
2023-03-15T05:43:27.221Z,12.18
2023-03-15T05:44:44.879Z,6.85
2023-03-15T05:46:07.582Z,8.70
2023-03-15T05:47:39.207Z,9.98
2023-03-15T05:49:01.987Z,6.28
2023-03-15T05:50:10.803Z,7.93
2023-03-15T05:51:36.269Z,6.22
2023-03-15T05:52:44.478Z,10.13
2023-03-15T05:54:04.636Z,8.10
2023-03-15T05:55:42.517Z,8.80
2023-03-15T05:57:04.837Z,9.73
2023-03-15T05:58:25.917Z,5.43
2023-03-15T05:59:56.426Z,5.85
2023-03-15T06:01:16.734Z,5.68
2023-03-15T06:02:39.037Z,7.28
2023-03-15T06:03:55.102Z,9.43
2023-03-15T06:05:02.448Z,6.47
2023-03-15T06:06:06.432Z,7.30
2023-03-15T06:07:15.136Z,7.47
2023-03-15T06:08:17.574Z,5.90
2023-03-15T06:09:22.936Z,7.63
2023-03-15T06:10:26.494Z,7.97
2023-03-15T06:11:30.905Z,6.18
2023-03-15T06:12:34.554Z,4.28
2023-03-15T06:13:37.249Z,8.13
2023-03-15T06:14:45.830Z,8.10
2023-03-15T06:15:48.811Z,8.32
2023-03-15T06:16:53.075Z,5.43
2023-03-15T06:17:55.720Z,9.30
2023-03-15T06:18:58.329Z,6.15
2023-03-15T06:20:01.189Z,6.78
2023-03-15T06:21:03.816Z,8.82
2023-03-15T06:22:06.365Z,7.88
2023-03-15T06:23:19.321Z,6.65
2023-03-15T06:24:23.007Z,10.55
2023-03-15T06:25:25.744Z,6.85
2023-03-15T06:26:28.259Z,10.43
2023-03-15T06:27:36.013Z,8.73
2023-03-15T06:28:38.909Z,7.70
2023-03-15T06:29:41.451Z,7.45
2023-03-15T06:30:44.329Z,7.03
2023-03-15T06:31:49.812Z,6.68
2023-03-15T06:32:53.871Z,6.10
2023-03-15T06:33:56.454Z,11.00
2023-03-15T06:34:59.169Z,8.07
2023-03-15T06:36:02.195Z,7.03
2023-03-15T06:37:05.165Z,5.15
2023-03-15T06:38:11.010Z,8.25
2023-03-15T06:39:14.753Z,9.52
2023-03-15T06:40:17.446Z,7.28
2023-03-15T06:41:21.789Z,7.15
2023-03-15T06:42:28.627Z,10.52
2023-03-15T06:43:31.929Z,6.80
2023-03-15T06:44:35.406Z,6.45
2023-03-15T06:45:41.252Z,5.90
2023-03-15T06:46:44.703Z,8.05
2023-03-15T06:47:47.252Z,5.80
2023-03-15T06:48:51.335Z,6.25
2023-03-15T06:49:56.961Z,6.05
2023-03-15T06:51:01.161Z,8.75
2023-03-15T06:52:05.228Z,8.70
2023-03-15T06:53:09.037Z,6.90
2023-03-15T06:54:11.714Z,7.43
2023-03-15T06:55:18.411Z,5.07
2023-03-15T06:56:21.777Z,6.28
2023-03-15T06:57:24.248Z,6.90
2023-03-15T06:58:26.868Z,9.05
2023-03-15T06:59:29.377Z,11.02
2023-03-15T07:00:32.944Z,9.15
2023-03-15T07:01:35.746Z,5.68
2023-03-15T07:02:38.688Z,7.40
2023-03-15T07:03:41.817Z,11.38
2023-03-15T07:04:44.910Z,7.50
2023-03-15T07:05:49.587Z,11.52
2023-03-15T07:06:52.200Z,10.52
2023-03-15T07:07:54.743Z,7.10
2023-03-15T07:08:57.776Z,7.75
2023-03-15T07:10:00.349Z,7.18
2023-03-15T07:11:03.948Z,10.40
2023-03-15T07:12:07.262Z,4.47
2023-03-15T07:13:10.175Z,6.68
2023-03-15T07:14:12.636Z,7.72
2023-03-15T07:15:17.067Z,8.27
2023-03-15T07:16:20.194Z,5.47
2023-03-15T07:17:22.649Z,7.53
2023-03-15T07:18:25.401Z,11.25
2023-03-15T07:19:27.939Z,5.80
2023-03-15T07:20:31.572Z,10.25
2023-03-15T07:21:34.189Z,10.30
2023-03-15T07:22:36.787Z,8.10
2023-03-15T07:23:39.652Z,14.20
2023-03-15T07:24:42.180Z,9.68
2023-03-15T07:25:54.819Z,5.00
2023-03-15T07:26:57.844Z,11.30
2023-03-15T07:28:00.425Z,12.30
2023-03-15T07:29:03.401Z,9.38
2023-03-15T07:30:08.238Z,10.20
2023-03-15T07:31:11.620Z,13.95
2023-03-15T07:32:14.293Z,11.70
2023-03-15T07:33:16.817Z,12.30
2023-03-15T07:34:19.427Z,11.88
2023-03-15T07:35:21.911Z,9.85
2023-03-15T07:36:24.322Z,9.90
2023-03-15T07:37:29.103Z,6.78
2023-03-15T07:38:32.198Z,10.02
2023-03-15T07:39:35.007Z,14.98
2023-03-15T07:40:37.525Z,9.25
2023-03-15T07:41:40.142Z,8.18
2023-03-15T07:43:53.847Z,8.45
2023-03-15T07:44:56.396Z,8.25
2023-03-15T07:45:58.961Z,10.00
2023-03-15T07:47:01.847Z,10.85
2023-03-15T07:48:04.457Z,5.38
2023-03-15T07:49:07.160Z,6.78
2023-03-15T07:50:10.404Z,6.72
2023-03-15T07:51:13.077Z,9.43
2023-03-15T07:52:15.591Z,6.82
2023-03-15T07:53:18.434Z,8.43
2023-03-15T07:54:20.989Z,10.98
2023-03-15T07:55:23.716Z,13.18
2023-03-15T07:56:26.108Z,12.07
2023-03-15T07:57:29.051Z,6.97
2023-03-15T07:58:31.890Z,6.97
2023-03-15T07:59:34.421Z,6.63
2023-03-15T08:00:37.190Z,6.93
2023-03-15T08:01:39.764Z,6.20
2023-03-15T08:02:42.459Z,7.57
2023-03-15T08:03:44.965Z,8.75
2023-03-15T08:04:48.774Z,10.98
2023-03-15T08:05:51.469Z,7.00
2023-03-15T08:06:53.996Z,9.13
2023-03-15T08:07:56.978Z,7.22
2023-03-15T08:09:01.618Z,7.78
2023-03-15T08:10:06.283Z,9.10
2023-03-15T08:11:08.809Z,8.55
2023-03-15T08:12:11.592Z,5.63
2023-03-15T08:13:14.191Z,4.85
2023-03-15T08:14:16.738Z,5.75
2023-03-15T08:15:20.333Z,8.82
2023-03-15T08:16:22.845Z,5.70
2023-03-15T08:17:25.298Z,7.03
2023-03-15T08:18:29.077Z,8.38
2023-03-15T08:19:31.598Z,8.43
2023-03-15T08:20:34.088Z,8.65
2023-03-15T08:21:36.737Z,11.38
2023-03-15T08:22:39.267Z,7.00
2023-03-15T08:23:41.777Z,8.20
2023-03-15T08:24:45.838Z,6.10
2023-03-15T08:25:48.837Z,9.57
2023-03-15T08:26:51.437Z,10.88
2023-03-15T08:27:54.084Z,10.48
2023-03-15T08:28:56.549Z,11.60
2023-03-15T08:29:59.490Z,6.63
2023-03-15T08:31:06.044Z,6.95
2023-03-15T08:32:08.952Z,7.13
2023-03-15T08:33:12.542Z,7.47
2023-03-15T08:34:16.269Z,8.50
2023-03-15T08:35:21.465Z,8.05
2023-03-15T08:36:24.057Z,9.43
2023-03-15T08:37:26.807Z,6.88
2023-03-15T08:38:29.389Z,11.02
2023-03-15T08:39:31.889Z,4.45
2023-03-15T08:40:34.389Z,7.25
2023-03-15T08:41:36.890Z,4.82
2023-03-15T08:42:39.412Z,7.97
2023-03-15T08:43:42.226Z,10.98
2023-03-15T08:44:44.656Z,5.13
2023-03-15T08:46:00.336Z,7.00
2023-03-15T08:47:05.303Z,7.28
2023-03-15T08:48:07.810Z,7.20
2023-03-15T08:49:10.578Z,7.97
2023-03-15T08:50:14.538Z,5.35
2023-03-15T08:51:17.104Z,8.43
2023-03-15T08:52:21.380Z,6.85
2023-03-15T08:53:23.913Z,8.30
2023-03-15T08:54:27.503Z,5.53
2023-03-15T08:55:30.068Z,8.70
2023-03-15T08:56:32.648Z,10.10
2023-03-15T08:57:35.177Z,4.63
2023-03-15T08:58:37.952Z,4.40
2023-03-15T08:59:40.784Z,7.38
2023-03-15T09:00:43.339Z,7.85
2023-03-15T09:01:45.906Z,10.30
2023-03-15T09:02:52.292Z,7.10
2023-03-15T09:03:54.971Z,8.63
2023-03-15T09:04:57.486Z,9.82
2023-03-15T09:06:00.660Z,4.05
2023-03-15T09:07:03.272Z,7.82
2023-03-15T09:08:05.828Z,9.45
2023-03-15T09:09:08.509Z,13.63
2023-03-15T09:10:15.011Z,8.00
2023-03-15T09:11:17.727Z,5.65
2023-03-15T09:12:21.213Z,9.18
2023-03-15T09:13:24.511Z,8.65
2023-03-15T09:14:27.068Z,6.90
2023-03-15T09:15:29.731Z,9.75
2023-03-15T09:16:32.256Z,6.03
2023-03-15T09:17:34.782Z,7.28
2023-03-15T09:18:37.327Z,7.15
2023-03-15T09:19:40.035Z,8.07
2023-03-15T09:20:42.961Z,9.38
2023-03-15T09:21:47.169Z,6.75
2023-03-15T09:22:54.642Z,5.60
2023-03-15T09:23:57.298Z,9.18
2023-03-15T09:25:00.037Z,9.32
2023-03-15T09:26:03.358Z,7.43
2023-03-15T09:27:06.125Z,9.80
2023-03-15T09:28:11.460Z,12.73
2023-03-15T09:29:15.179Z,14.30
2023-03-15T09:30:18.098Z,16.95
2023-03-15T09:31:20.602Z,12.65
2023-03-15T09:32:23.236Z,12.93
2023-03-15T09:33:25.744Z,14.15
2023-03-15T09:34:33.301Z,9.65
2023-03-15T09:35:42.605Z,7.00
2023-03-15T09:36:45.766Z,11.90
2023-03-15T09:37:50.063Z,12.32
2023-03-15T09:38:52.514Z,11.07
2023-03-15T09:39:55.067Z,10.40
2023-03-15T09:41:01.317Z,11.73
2023-03-15T09:42:07.568Z,6.80
2023-03-15T09:43:43.030Z,6.07
2023-03-15T09:44:50.849Z,7.13
2023-03-15T09:46:12.104Z,10.80
2023-03-15T09:47:27.430Z,9.75
2023-03-15T09:48:52.591Z,6.82
2023-03-15T09:50:05.428Z,8.57
2023-03-15T09:51:32.684Z,12.23
2023-03-15T09:52:39.908Z,11.60
2023-03-15T09:53:56.956Z,9.80
2023-03-15T09:55:34.943Z,8.30
2023-03-15T09:57:02.345Z,6.80
2023-03-15T09:58:14.581Z,7.25
2023-03-15T09:59:22.716Z,7.65
2023-03-15T10:00:39.104Z,9.43
2023-03-15T10:01:42.832Z,6.90
2023-03-15T10:03:21.825Z,9.52
2023-03-15T10:04:34.682Z,11.43
2023-03-15T10:05:44.169Z,12.88
2023-03-15T10:06:54.674Z,10.98
2023-03-15T10:07:57.318Z,6.25
2023-03-15T10:09:01.627Z,6.60
2023-03-15T10:10:07.634Z,8.88
2023-03-15T10:11:15.954Z,8.05
2023-03-15T10:12:31.604Z,8.38
2023-03-15T10:13:54.510Z,10.10
2023-03-15T10:15:00.377Z,9.38
2023-03-15T10:16:06.436Z,11.23
2023-03-15T10:17:22.117Z,12.70
2023-03-15T10:18:32.924Z,8.38
2023-03-15T10:19:51.980Z,7.57
2023-03-15T10:21:39.883Z,8.65
2023-03-15T10:22:54.393Z,8.55
2023-03-15T10:23:57.264Z,14.52
2023-03-15T10:25:14.660Z,8.52
2023-03-15T10:26:21.170Z,7.45
2023-03-15T10:27:29.740Z,9.18
2023-03-15T10:28:34.826Z,7.50
2023-03-15T10:29:39.697Z,6.68
2023-03-15T10:30:48.094Z,11.15
2023-03-15T10:31:52.763Z,5.80
2023-03-15T10:32:59.479Z,9.38
2023-03-15T10:34:02.229Z,9.15
2023-03-15T10:35:15.316Z,9.48
2023-03-15T10:36:23.534Z,8.90
2023-03-15T10:37:26.771Z,8.57
2023-03-15T10:38:29.368Z,7.00
2023-03-15T10:39:31.864Z,9.15
2023-03-15T10:40:50.547Z,7.65
2023-03-15T10:41:53.218Z,5.97
2023-03-15T10:42:58.340Z,7.60
2023-03-15T10:44:04.182Z,10.20
2023-03-15T10:45:33.967Z,11.80
2023-03-15T10:46:36.542Z,5.88
2023-03-15T10:47:50.508Z,11.35
2023-03-15T10:48:59.207Z,14.05
2023-03-15T10:50:01.714Z,10.48
2023-03-15T10:51:19.745Z,8.43
2023-03-15T10:52:39.100Z,7.10
2023-03-15T10:53:54.030Z,13.18
2023-03-15T10:55:03.939Z,8.95
2023-03-15T10:56:08.035Z,7.25
2023-03-15T10:57:15.492Z,9.13
2023-03-15T10:58:33.281Z,6.88
2023-03-15T10:59:36.353Z,6.20
2023-03-15T11:00:38.828Z,5.75
2023-03-15T11:01:41.643Z,5.85
2023-03-15T11:02:52.607Z,7.40
2023-03-15T11:04:26.864Z,6.53
2023-03-15T11:05:43.117Z,5.20
2023-03-15T11:07:03.651Z,5.90
2023-03-15T11:08:12.145Z,4.93
2023-03-15T11:09:22.844Z,9.40
2023-03-15T11:11:28.858Z,9.32
2023-03-15T11:12:33.528Z,8.80
2023-03-15T11:13:38.123Z,7.93
2023-03-15T11:14:44.126Z,6.38
2023-03-15T11:16:12.774Z,7.50
2023-03-15T11:17:22.053Z,8.18
2023-03-15T11:19:03.673Z,6.07
2023-03-15T11:20:31.936Z,6.60
2023-03-15T11:21:37.024Z,3.92
2023-03-15T11:22:43.044Z,5.30
2023-03-15T11:23:50.228Z,5.97
2023-03-15T11:24:56.437Z,7.30
2023-03-15T11:25:59.096Z,10.50
2023-03-15T11:27:04.315Z,6.85
2023-03-15T11:28:09.164Z,9.40
2023-03-15T11:29:26.432Z,7.35
2023-03-15T11:30:32.072Z,8.23
2023-03-15T11:31:35.997Z,7.90
2023-03-15T11:32:38.646Z,5.68
2023-03-15T11:33:46.170Z,10.50
2023-03-15T11:35:02.907Z,8.27
2023-03-15T11:36:09.629Z,7.30
2023-03-15T11:37:18.012Z,6.28
2023-03-15T11:38:33.569Z,4.88
2023-03-15T11:39:50.222Z,6.93
2023-03-15T11:40:56.813Z,6.28
2023-03-15T11:42:03.327Z,9.43
2023-03-15T11:43:23.574Z,6.93
2023-03-15T11:44:41.550Z,7.72
2023-03-15T11:46:02.403Z,6.57
2023-03-15T11:47:47.958Z,6.40
2023-03-15T11:49:00.420Z,8.13
2023-03-15T11:50:03.044Z,4.28
2023-03-15T11:51:07.042Z,10.40
2023-03-15T11:52:10.060Z,11.50
2023-03-15T11:53:15.528Z,9.35
2023-03-15T11:54:19.296Z,8.07
2023-03-15T11:55:27.124Z,8.93
2023-03-15T11:56:46.952Z,4.93
2023-03-15T11:57:51.056Z,7.85
2023-03-15T11:59:11.276Z,8.73
2023-03-15T12:00:27.054Z,6.13
2023-03-15T12:01:29.602Z,8.88
2023-03-15T12:02:37.293Z,6.55
2023-03-15T12:03:40.998Z,5.78
2023-03-15T12:04:44.380Z,4.10
2023-03-15T12:06:04.757Z,6.07
2023-03-15T12:07:28.439Z,6.75
2023-03-15T12:08:35.576Z,4.43
2023-03-15T12:09:49.317Z,7.45
2023-03-15T12:10:52.135Z,7.22
2023-03-15T12:11:58.877Z,6.70
2023-03-15T12:13:08.092Z,9.52
2023-03-15T12:14:28.940Z,5.07
2023-03-15T12:15:31.538Z,8.32
2023-03-15T12:16:43.274Z,6.22
2023-03-15T12:17:56.002Z,9.80
2023-03-15T12:19:00.430Z,5.22
2023-03-15T12:20:12.119Z,7.30
2023-03-15T12:21:20.728Z,5.55
2023-03-15T12:22:23.526Z,5.30
2023-03-15T12:23:36.832Z,7.63
2023-03-15T12:24:39.982Z,5.07
2023-03-15T12:26:17.242Z,6.25
2023-03-15T12:27:20.903Z,4.53
2023-03-15T12:28:51.121Z,7.28
2023-03-15T12:30:00.060Z,6.25
2023-03-15T12:31:05.873Z,4.45
2023-03-15T12:32:13.687Z,5.45
2023-03-15T12:33:18.375Z,8.48
2023-03-15T12:34:30.142Z,8.40
2023-03-15T12:35:40.580Z,7.25
2023-03-15T12:36:47.611Z,8.93
2023-03-15T12:37:53.079Z,8.55
2023-03-15T12:39:01.654Z,8.07
2023-03-15T12:40:27.660Z,10.18
2023-03-15T12:41:39.088Z,5.00
2023-03-15T12:42:41.582Z,8.43
2023-03-15T12:43:45.680Z,3.47
2023-03-15T12:44:48.438Z,10.60
2023-03-15T12:45:50.968Z,10.88
2023-03-15T12:46:55.185Z,6.25
2023-03-15T12:47:57.790Z,11.00
2023-03-15T12:49:23.791Z,9.25
2023-03-15T12:50:44.433Z,12.07
2023-03-15T12:52:05.881Z,9.30
2023-03-15T12:53:40.038Z,6.72
2023-03-15T12:54:57.767Z,7.45
2023-03-15T12:56:36.945Z,7.43
2023-03-15T12:57:48.677Z,8.98
2023-03-15T12:58:54.624Z,4.05
2023-03-15T12:59:59.693Z,5.80
2023-03-15T13:01:05.593Z,6.20
2023-03-15T13:02:43.448Z,5.03
2023-03-15T13:03:46.914Z,6.93
2023-03-15T13:04:49.950Z,4.65
2023-03-15T13:06:22.391Z,8.18
2023-03-15T13:07:36.840Z,6.07
2023-03-15T13:09:04.725Z,4.78
2023-03-15T13:10:31.139Z,5.30
2023-03-15T13:11:45.985Z,7.57
2023-03-15T13:12:59.670Z,5.20
2023-03-15T13:14:08.124Z,8.10
2023-03-15T13:15:23.749Z,5.43
2023-03-15T13:16:31.128Z,5.43
2023-03-15T13:17:36.464Z,3.88
2023-03-15T13:18:47.965Z,5.05
2023-03-15T13:20:11.206Z,5.05
2023-03-15T13:21:32.147Z,5.05
2023-03-15T13:22:56.058Z,2.38
2023-03-15T13:24:00.127Z,5.43
2023-03-15T13:25:09.982Z,6.00
2023-03-15T13:26:33.286Z,5.40
2023-03-15T13:27:56.724Z,9.80
2023-03-15T13:29:02.335Z,6.43
2023-03-15T13:30:28.195Z,6.13
2023-03-15T13:31:31.610Z,7.82
2023-03-15T13:32:34.635Z,5.57
2023-03-15T13:33:37.503Z,6.30
2023-03-15T13:34:40.856Z,5.55
2023-03-15T13:36:08.298Z,7.38
2023-03-15T13:37:22.207Z,7.20
2023-03-15T13:38:31.809Z,5.45
2023-03-15T13:39:35.261Z,4.70
2023-03-15T13:40:46.826Z,9.95
2023-03-15T13:41:49.760Z,8.57
2023-03-15T13:42:52.400Z,15.18
2023-03-15T13:43:57.247Z,7.60
2023-03-15T13:45:13.257Z,11.82
2023-03-15T13:46:18.603Z,7.72
2023-03-15T13:47:24.430Z,7.10
2023-03-15T13:48:31.765Z,7.28
2023-03-15T13:49:35.025Z,9.73
2023-03-15T13:50:38.173Z,5.00
2023-03-15T13:51:41.388Z,5.82
2023-03-15T13:52:44.155Z,6.60
2023-03-15T13:53:50.265Z,6.65
2023-03-15T13:54:53.930Z,9.60
2023-03-15T13:55:57.300Z,9.13
2023-03-15T13:57:34.973Z,4.55
2023-03-15T13:58:38.949Z,7.20
2023-03-15T13:59:49.733Z,3.17
2023-03-15T14:01:05.795Z,7.53
2023-03-15T14:02:12.259Z,7.95
2023-03-15T14:03:21.709Z,6.88
2023-03-15T14:04:25.507Z,8.48
2023-03-15T14:05:31.092Z,7.43
2023-03-15T14:06:33.982Z,9.63
2023-03-15T14:07:45.429Z,11.30
2023-03-15T14:08:49.712Z,6.53
2023-03-15T14:10:16.937Z,3.90
2023-03-15T14:11:37.223Z,6.15
2023-03-15T14:12:39.890Z,4.10
2023-03-15T14:13:57.617Z,6.47
2023-03-15T14:15:00.150Z,11.20
2023-03-15T14:16:07.979Z,4.43
2023-03-15T14:17:31.913Z,4.40
2023-03-15T14:18:39.599Z,5.45
2023-03-15T14:19:53.446Z,6.82
2023-03-15T14:21:01.746Z,8.48
2023-03-15T14:22:15.695Z,6.45
2023-03-15T14:23:19.428Z,7.45
2023-03-15T14:24:24.893Z,5.00
2023-03-15T14:25:27.611Z,9.05
2023-03-15T14:26:31.336Z,5.88
2023-03-15T14:27:34.533Z,3.35
2023-03-15T14:28:37.350Z,8.00
2023-03-15T14:29:54.630Z,6.03
2023-03-15T14:30:59.029Z,5.70
2023-03-15T14:32:05.893Z,9.63
2023-03-15T14:33:24.234Z,8.85
2023-03-15T14:34:37.163Z,6.00
2023-03-15T14:35:44.285Z,5.22
2023-03-15T14:36:47.808Z,8.68
2023-03-15T14:38:15.861Z,5.28
2023-03-15T14:39:35.858Z,9.60
2023-03-15T14:40:39.279Z,11.32
2023-03-15T14:41:41.698Z,5.95
2023-03-15T14:42:45.205Z,8.52
2023-03-15T14:43:47.836Z,4.18
2023-03-15T14:44:52.682Z,7.53
2023-03-15T14:45:55.291Z,11.30
2023-03-15T14:46:58.315Z,7.07
2023-03-15T14:48:08.539Z,8.88
2023-03-15T14:49:14.001Z,10.88
2023-03-15T14:50:22.195Z,9.75
2023-03-15T14:51:25.804Z,11.38
2023-03-15T14:52:28.405Z,8.55
2023-03-15T14:53:36.056Z,12.00
2023-03-15T14:54:38.933Z,9.43
2023-03-15T14:55:41.405Z,8.60
2023-03-15T14:56:44.524Z,8.35
2023-03-15T14:57:47.347Z,11.30
2023-03-15T14:58:49.868Z,10.32
2023-03-15T14:59:52.812Z,13.48
2023-03-15T15:00:58.120Z,13.13
2023-03-15T15:02:02.930Z,13.07
2023-03-15T15:03:14.038Z,10.05
2023-03-15T15:04:17.298Z,7.70
2023-03-15T15:05:31.448Z,7.43
2023-03-15T15:06:36.762Z,11.50
2023-03-15T15:07:39.269Z,7.15
2023-03-15T15:08:45.822Z,8.02
2023-03-15T15:09:50.743Z,8.15
2023-03-15T15:10:56.235Z,9.15
2023-03-15T15:11:58.726Z,6.57